Time;durP1;ratioP1;P1;durP2;ratioP2;P2;SDS_P1;SDS_P2;PMS_P1;PMS_P2;Temp;Humidity;BMP_temperature;BMP_pressure;BME280_temperature;BME280_humidity;BME280_pressure;Samples;Min_cycle;Max_cycle;Signal;HPM_P1;HPM_P2
2021/04/24 00:00:33;;;;;;;5.70;4.60;;;;;20.80;101643.00;;;;2078102;28;20233;-64
2021/04/24 00:01:33;;;;;;;4.53;4.13;;;;;20.80;101642.00;;;;2079192;28;20229;-64
2021/04/24 00:02:36;;;;;;;5.63;4.13;;;;;20.80;101645.00;;;;2079873;28;20214;-64
2021/04/24 00:03:37;;;;;;;5.05;4.30;;;;;20.80;101642.00;;;;2079772;28;20294;-64
2021/04/24 00:04:38;;;;;;;5.03;4.53;;;;;20.80;101647.00;;;;2079526;28;20219;-64
2021/04/24 00:05:41;;;;;;;4.32;3.80;;;;;20.80;101647.00;;;;2080033;28;20214;-64
2021/04/24 00:06:41;;;;;;;6.05;4.15;;;;;20.80;101647.00;;;;2079926;28;20250;-64
2021/04/24 00:07:42;;;;;;;4.23;3.83;;;;;20.80;101652.00;;;;2080019;28;20226;-64
2021/04/24 00:08:42;;;;;;;4.40;4.00;;;;;20.80;101646.00;;;;2079833;28;20225;-64
2021/04/24 00:09:42;;;;;;;4.60;4.20;;;;;20.80;101658.00;;;;2079755;28;20210;-64
2021/04/24 00:10:44;;;;;;;4.53;3.70;;;;;20.80;101653.00;;;;2079755;28;20244;-64
2021/04/24 00:11:45;;;;;;;5.55;3.70;;;;;20.80;101652.00;;;;2079791;28;20324;-64
2021/04/24 00:12:46;;;;;;;4.23;3.83;;;;;20.80;101653.00;;;;2077276;28;20226;-64
2021/04/24 00:13:46;;;;;;;5.50;3.58;;;;;20.80;101652.00;;;;2079731;28;20217;-64
2021/04/24 00:14:47;;;;;;;4.10;3.70;;;;;20.80;101653.00;;;;2079480;28;20217;-64
2021/04/24 00:15:47;;;;;;;4.13;3.73;;;;;20.80;101652.00;;;;2079168;28;20214;-64
2021/04/24 00:16:47;;;;;;;6.73;4.37;;;;;20.80;101661.00;;;;2079776;28;20225;-64
2021/04/24 00:17:48;;;;;;;4.10;3.70;;;;;20.80;101653.00;;;;2074087;28;20214;-64
2021/04/24 00:18:48;;;;;;;3.70;3.40;;;;;20.70;101649.00;;;;2079382;28;20253;-63
2021/04/24 00:19:49;;;;;;;4.13;3.43;;;;;20.70;101656.00;;;;2079039;28;20214;-64
2021/04/24 00:20:49;;;;;;;4.23;3.63;;;;;20.70;101655.00;;;;2079264;28;20273;-64
2021/04/24 00:21:49;;;;;;;3.80;2.97;;;;;20.80;101662.00;;;;2079844;28;20210;-63
2021/04/24 00:22:50;;;;;;;4.47;3.47;;;;;20.70;101662.00;;;;2079308;28;20220;-64
2021/04/24 00:23:50;;;;;;;5.00;3.10;;;;;20.70;101661.00;;;;2078924;28;20282;-64
2021/04/24 00:24:51;;;;;;;3.93;3.50;;;;;20.70;101656.00;;;;2079338;28;20244;-64
2021/04/24 00:25:51;;;;;;;3.67;3.30;;;;;20.70;101653.00;;;;2079323;28;20268;-63
2021/04/24 00:26:51;;;;;;;4.53;4.13;;;;;20.70;101659.00;;;;2079454;28;20218;-64
2021/04/24 00:27:52;;;;;;;3.30;3.00;;;;;20.70;101654.00;;;;2079502;28;20206;-63
2021/04/24 00:28:52;;;;;;;3.20;2.87;;;;;20.70;101654.00;;;;2079461;28;20214;-63
2021/04/24 00:29:52;;;;;;;4.47;3.43;;;;;20.70;101653.00;;;;2079600;28;20226;-64
2021/04/24 00:30:53;;;;;;;3.43;3.07;;;;;20.70;101653.00;;;;2079362;28;20624;-64
2021/04/24 00:31:53;;;;;;;3.47;3.00;;;;;20.70;101650.00;;;;2079557;28;20210;-64
2021/04/24 00:32:53;;;;;;;5.07;3.33;;;;;20.70;101651.00;;;;2079834;28;20264;-64
2021/04/24 00:33:54;;;;;;;3.83;3.27;;;;;20.70;101654.00;;;;2079238;28;20218;-64
2021/04/24 00:34:54;;;;;;;3.50;3.07;;;;;20.70;101650.00;;;;2078860;28;20218;-64
2021/04/24 00:35:54;;;;;;;3.40;3.10;;;;;20.70;101657.00;;;;2078865;28;20275;-64
2021/04/24 00:36:55;;;;;;;5.17;3.40;;;;;20.70;101658.00;;;;2079428;28;20219;-64
2021/04/24 00:37:55;;;;;;;3.40;2.90;;;;;20.70;101658.00;;;;2077045;28;20226;-64
2021/04/24 00:38:55;;;;;;;3.43;3.10;;;;;20.70;101656.00;;;;2079421;28;20198;-64
2021/04/24 00:39:56;;;;;;;3.10;2.80;;;;;20.70;101655.00;;;;2079709;28;20225;-64
2021/04/24 00:40:56;;;;;;;4.00;3.10;;;;;20.60;101650.00;;;;2079160;28;20246;-64
2021/04/24 00:41:56;;;;;;;3.90;2.80;;;;;20.70;101639.00;;;;2079014;28;20301;-64
2021/04/24 00:42:57;;;;;;;3.60;3.03;;;;;20.70;101644.00;;;;2076971;28;20265;-64
2021/04/24 00:43:57;;;;;;;4.07;2.77;;;;;20.70;101645.00;;;;2079699;28;20596;-63
2021/04/24 00:44:58;;;;;;;3.20;2.67;;;;;20.70;101635.00;;;;2079682;28;20860;-64
2021/04/24 00:45:58;;;;;;;2.73;2.53;;;;;20.70;101647.00;;;;2078984;28;20557;-64
2021/04/24 00:46:58;;;;;;;4.23;2.93;;;;;20.70;101648.00;;;;2078837;28;20738;-63
2021/04/24 00:47:59;;;;;;;2.90;2.50;;;;;20.60;101651.00;;;;2073740;28;20241;-63
2021/04/24 00:48:59;;;;;;;3.20;2.33;;;;;20.60;101646.00;;;;2079393;28;20222;-64
2021/04/24 00:49:59;;;;;;;3.60;2.70;;;;;20.60;101643.00;;;;2079526;28;20214;-64
2021/04/24 00:51:00;;;;;;;3.27;2.80;;;;;20.60;101651.00;;;;2079621;28;22541;-64
2021/04/24 00:52:00;;;;;;;2.90;2.53;;;;;20.60;101644.00;;;;2078844;28;20323;-64
2021/04/24 00:53:00;;;;;;;2.60;2.40;;;;;20.60;101652.00;;;;2077208;28;20240;-64
2021/04/24 00:54:01;;;;;;;3.90;2.70;;;;;20.60;101649.00;;;;2078922;28;22192;-64
2021/04/24 00:55:01;;;;;;;2.50;2.30;;;;;20.60;101653.00;;;;2078717;28;20226;-64
2021/04/24 00:56:02;;;;;;;2.60;2.40;;;;;20.60;101646.00;;;;2079594;28;20226;-64
2021/04/24 00:57:03;;;;;;;3.67;2.58;;;;;20.60;101650.00;;;;2079445;28;20629;-64
2021/04/24 00:58:04;;;;;;;3.37;2.80;;;;;20.60;101646.00;;;;2079346;28;20233;-64
2021/04/24 00:59:04;;;;;;;4.18;2.70;;;;;20.60;101642.00;;;;2078477;28;20252;-64
2021/04/24 01:00:06;;;;;;;2.87;2.57;;;;;20.60;101641.00;;;;2070276;28;20241;-63
2021/04/24 01:01:06;;;;;;;2.95;2.00;;;;;20.50;101645.00;;;;2077775;28;20794;-63
2021/04/24 01:02:07;;;;;;;3.33;2.40;;;;;20.60;101635.00;;;;2078629;28;20214;-63
2021/04/24 01:03:07;;;;;;;3.90;2.30;;;;;20.60;101633.00;;;;2079470;28;20213;-64
2021/04/24 01:04:08;;;;;;;2.30;1.97;;;;;20.60;101644.00;;;;2078922;28;20523;-63
2021/04/24 01:05:14;;;;;;;2.23;2.03;;;;;20.50;101627.00;;;;2078760;28;20957;-63
2021/04/24 01:06:14;;;;;;;2.05;1.85;;;;;20.60;101633.00;;;;2077012;28;20210;-64
2021/04/24 01:07:15;;;;;;;2.70;2.47;;;;;20.60;101627.00;;;;2079486;28;20206;-64
2021/04/24 01:08:15;;;;;;;2.73;1.83;;;;;20.60;101631.00;;;;2078510;28;20224;-64
2021/04/24 01:09:15;;;;;;;2.50;2.07;;;;;20.60;101632.00;;;;2079601;28;20260;-64
2021/04/24 01:10:16;;;;;;;3.13;2.07;;;;;20.60;101636.00;;;;2079178;28;20232;-64
2021/04/24 01:11:16;;;;;;;3.67;2.20;;;;;20.60;101635.00;;;;2079108;28;20755;-64
2021/04/24 01:12:17;;;;;;;2.20;2.00;;;;;20.60;101631.00;;;;2079468;28;20214;-63
2021/04/24 01:13:17;;;;;;;3.43;1.83;;;;;20.50;101634.00;;;;2079129;28;20220;-64
2021/04/24 01:14:17;;;;;;;2.67;2.20;;;;;20.60;101635.00;;;;2079367;28;20221;-64
2021/04/24 01:15:18;;;;;;;3.53;2.13;;;;;20.60;101633.00;;;;2079337;28;20213;-64
2021/04/24 01:16:18;;;;;;;2.50;2.30;;;;;20.50;101624.00;;;;2075767;28;20218;-64
2021/04/24 01:17:19;;;;;;;2.67;1.90;;;;;20.60;101633.00;;;;2079209;28;20573;-64
2021/04/24 01:18:19;;;;;;;3.53;2.30;;;;;20.50;101642.00;;;;2079168;28;20558;-64
2021/04/24 01:19:22;;;;;;;3.20;2.17;;;;;20.60;101629.00;;;;2078639;28;20792;-64
2021/04/24 01:20:23;;;;;;;2.55;1.67;;;;;20.50;101628.00;;;;2078729;28;20218;-64
2021/04/24 01:21:24;;;;;;;3.50;2.00;;;;;20.50;101630.00;;;;2079471;28;20210;-64
2021/04/24 01:22:24;;;;;;;3.60;2.07;;;;;20.50;101628.00;;;;2079172;28;20758;-64
2021/04/24 01:23:25;;;;;;;2.40;2.07;;;;;20.50;101625.00;;;;2079494;28;20581;-64
2021/04/24 01:24:25;;;;;;;2.63;2.20;;;;;20.50;101629.00;;;;2078144;28;20309;-63
2021/04/24 01:25:25;;;;;;;2.03;1.60;;;;;20.50;101625.00;;;;2062318;28;20219;-64
2021/04/24 01:26:26;;;;;;;3.23;1.80;;;;;20.50;101627.00;;;;2070525;28;20211;-64
2021/04/24 01:27:26;;;;;;;2.53;1.67;;;;;20.50;101634.00;;;;2075580;28;20231;-64
2021/04/24 01:28:28;;;;;;;2.47;2.00;;;;;20.50;101627.00;;;;2078486;28;20658;-64
2021/04/24 01:29:29;;;;;;;3.05;1.98;;;;;20.50;101621.00;;;;2079256;28;20583;-64
2021/04/24 01:30:31;;;;;;;3.10;1.73;;;;;20.50;101622.00;;;;2079207;28;20210;-64
2021/04/24 01:31:35;;;;;;;2.25;2.05;;;;;20.50;101626.00;;;;2079156;28;20577;-64
2021/04/24 01:32:37;;;;;;;3.15;2.10;;;;;20.50;101622.00;;;;2079362;28;20283;-64
2021/04/24 01:33:37;;;;;;;2.35;1.92;;;;;20.50;101619.00;;;;2079257;28;20268;-64
2021/04/24 01:34:37;;;;;;;2.63;1.70;;;;;20.50;101616.00;;;;2079732;28;21134;-64
2021/04/24 01:35:39;;;;;;;3.33;1.70;;;;;20.50;101617.00;;;;2080935;28;20592;-64
2021/04/24 01:36:39;;;;;;;2.10;1.75;;;;;20.50;101626.00;;;;2080681;28;20236;-64
2021/04/24 01:37:40;;;;;;;3.30;1.93;;;;;20.50;101612.00;;;;2081062;28;20213;-64
2021/04/24 01:38:40;;;;;;;2.70;1.87;;;;;20.40;101615.00;;;;2080308;28;20371;-64
2021/04/24 01:39:40;;;;;;;2.40;1.90;;;;;20.50;101616.00;;;;2079437;28;20241;-64
2021/04/24 01:40:41;;;;;;;2.10;1.90;;;;;20.50;101617.00;;;;2080878;28;20235;-64
2021/04/24 01:41:41;;;;;;;3.00;1.80;;;;;20.50;101617.00;;;;2081146;28;20680;-64
2021/04/24 01:42:42;;;;;;;1.97;1.63;;;;;20.50;101613.00;;;;2081034;28;20214;-64
2021/04/24 01:43:42;;;;;;;4.20;2.50;;;;;20.50;101617.00;;;;2080890;28;20222;-64
2021/04/24 01:44:43;;;;;;;2.10;1.87;;;;;20.50;101609.00;;;;2072008;28;20237;-63
2021/04/24 01:45:43;;;;;;;2.20;1.80;;;;;20.50;101614.00;;;;2072010;28;20237;-64
2021/04/24 01:46:43;;;;;;;2.10;1.90;;;;;20.50;101608.00;;;;2080967;28;20217;-64
2021/04/24 01:47:44;;;;;;;2.53;1.97;;;;;20.50;101615.00;;;;2080819;28;20213;-64
2021/04/24 01:48:46;;;;;;;3.10;2.10;;;;;20.40;101609.00;;;;2080755;28;20275;-63
2021/04/24 01:49:47;;;;;;;2.30;1.70;;;;;20.40;101603.00;;;;2081068;28;20465;-63
2021/04/24 01:50:47;;;;;;;2.10;1.60;;;;;20.40;101608.00;;;;2081062;28;20773;-63
2021/04/24 01:51:48;;;;;;;2.07;1.80;;;;;20.40;101604.00;;;;2081108;28;20929;-64
2021/04/24 01:52:49;;;;;;;2.00;1.83;;;;;20.50;101615.00;;;;2080220;28;20268;-63
2021/04/24 01:53:49;;;;;;;1.77;1.65;;;;;20.30;101613.00;;;;2074630;28;20232;-64
2021/04/24 01:54:50;;;;;;;2.10;1.57;;;;;20.50;101606.00;;;;2081094;28;20229;-64
2021/04/24 01:55:50;;;;;;;3.20;1.67;;;;;20.40;101614.00;;;;2080925;28;20225;-64
2021/04/24 01:56:53;;;;;;;3.00;1.63;;;;;20.40;101612.00;;;;2080762;28;20210;-64
2021/04/24 01:57:54;;;;;;;2.50;1.90;;;;;20.40;101607.00;;;;2080620;28;20623;-64
2021/04/24 01:58:54;;;;;;;3.20;2.27;;;;;20.40;101602.00;;;;2080572;28;20252;-64
2021/04/24 01:59:54;;;;;;;3.40;2.20;;;;;20.40;101613.00;;;;2080937;28;20221;-64
2021/04/24 02:00:57;;;;;;;3.43;1.87;;;;;20.40;101613.00;;;;2080592;28;20267;-64
2021/04/24 02:01:57;;;;;;;2.20;1.77;;;;;20.40;101617.00;;;;2080646;28;20244;-64
2021/04/24 02:02:58;;;;;;;3.43;1.90;;;;;20.40;101615.00;;;;2080779;28;20592;-64
2021/04/24 02:03:58;;;;;;;2.27;1.50;;;;;20.40;101606.00;;;;2080771;28;20245;-64
2021/04/24 02:05:01;;;;;;;2.50;2.07;;;;;20.40;101613.00;;;;2080929;28;20456;-64
2021/04/24 02:06:01;;;;;;;2.13;1.75;;;;;20.40;101606.00;;;;2080806;28;20221;-64
2021/04/24 02:07:02;;;;;;;3.57;2.03;;;;;20.40;101607.00;;;;2079985;28;20213;-64
2021/04/24 02:08:06;;;;;;;4.00;2.00;;;;;20.40;101608.00;;;;2080029;28;20308;-64
2021/04/24 02:09:09;;;;;;;5.00;1.95;;;;;20.40;101608.00;;;;2080581;28;20217;-64
2021/04/24 02:10:12;;;;;;;2.20;1.90;;;;;20.40;101613.00;;;;2080659;28;20214;-64
2021/04/24 02:11:13;;;;;;;3.13;1.80;;;;;20.40;101617.00;;;;2080684;28;20843;-64
2021/04/24 02:12:13;;;;;;;2.57;1.60;;;;;20.40;101621.00;;;;2080824;28;20226;-64
2021/04/24 02:13:18;;;;;;;2.10;1.60;;;;;20.40;101615.00;;;;2080639;28;20237;-63
2021/04/24 02:14:19;;;;;;;2.03;1.80;;;;;20.40;101619.00;;;;2080828;28;20218;-63
2021/04/24 02:15:19;;;;;;;2.53;1.70;;;;;20.40;101619.00;;;;2080473;28;20787;-64
2021/04/24 02:16:19;;;;;;;2.60;1.70;;;;;20.40;101625.00;;;;2080697;28;20884;-64
2021/04/24 02:17:24;;;;;;;2.30;1.87;;;;;20.40;101617.00;;;;2080752;28;20218;-64
2021/04/24 02:18:25;;;;;;;2.10;1.75;;;;;20.40;101613.00;;;;2078613;28;20210;-64
2021/04/24 02:19:25;;;;;;;2.33;1.80;;;;;20.40;101624.00;;;;2080200;28;20264;-64
2021/04/24 02:20:26;;;;;;;1.63;1.53;;;;;20.40;101614.00;;;;2080738;28;20600;-64
2021/04/24 02:21:26;;;;;;;2.20;1.60;;;;;20.40;101614.00;;;;2080833;28;20214;-64
2021/04/24 02:22:26;;;;;;;3.30;2.03;;;;;20.40;101618.00;;;;2077891;28;20252;-64
2021/04/24 02:23:34;;;;;;;2.00;1.67;;;;;20.40;101609.00;;;;2080621;28;20214;-64
2021/04/24 02:24:47;;;;;;;1.85;1.45;;;;;20.40;101624.00;;;;2080722;28;20777;-64
2021/04/24 02:25:48;;;;;;;2.28;1.75;;;;;20.30;101616.00;;;;2080579;28;20221;-64
2021/04/24 02:26:48;;;;;;;2.00;1.73;;;;;20.40;101617.00;;;;2080634;28;20588;-64
2021/04/24 02:27:48;;;;;;;1.80;1.70;;;;;20.30;101612.00;;;;2080096;28;20309;-64
2021/04/24 02:28:49;;;;;;;1.83;1.60;;;;;20.30;101619.00;;;;2080479;28;20214;-63
2021/04/24 02:29:49;;;;;;;3.20;1.80;;;;;20.30;101609.00;;;;2080734;28;20210;-64
2021/04/24 02:30:49;;;;;;;2.00;1.80;;;;;20.30;101614.00;;;;2080375;28;20222;-64
2021/04/24 02:31:50;;;;;;;2.47;1.77;;;;;20.30;101615.00;;;;2079093;28;22179;-64
2021/04/24 02:32:50;;;;;;;2.43;1.80;;;;;20.40;101616.00;;;;2063213;28;20223;-64
2021/04/24 02:33:50;;;;;;;1.80;1.57;;;;;20.30;101616.00;;;;2071676;28;20218;-63
2021/04/24 02:34:51;;;;;;;2.13;1.77;;;;;20.30;101607.00;;;;2080576;28;20217;-64
2021/04/24 02:35:53;;;;;;;2.50;2.10;;;;;20.30;101608.00;;;;2080431;28;20249;-64
2021/04/24 02:36:54;;;;;;;3.95;2.10;;;;;20.30;101615.00;;;;2080641;28;20702;-64
2021/04/24 02:37:54;;;;;;;2.23;1.67;;;;;20.30;101616.00;;;;2080508;28;20324;-64
2021/04/24 02:38:54;;;;;;;2.10;1.90;;;;;20.30;101620.00;;;;2080430;28;20206;-64
2021/04/24 02:39:55;;;;;;;3.10;1.60;;;;;20.30;101609.00;;;;2080250;28;20202;-64
2021/04/24 02:40:56;;;;;;;2.40;2.10;;;;;20.30;101618.00;;;;2080367;28;20307;-64
2021/04/24 02:41:57;;;;;;;1.95;1.42;;;;;20.30;101603.00;;;;2080184;28;20222;-64
2021/04/24 02:42:57;;;;;;;2.30;1.67;;;;;20.30;101607.00;;;;2080477;28;20220;-64
2021/04/24 02:43:58;;;;;;;3.23;1.73;;;;;20.30;101623.00;;;;2080130;28;20226;-64
2021/04/24 02:44:58;;;;;;;1.90;1.60;;;;;20.30;101614.00;;;;2080468;28;20249;-64
2021/04/24 02:45:58;;;;;;;5.17;1.90;;;;;20.30;101618.00;;;;2080169;28;20220;-64
2021/04/24 02:46:59;;;;;;;1.87;1.67;;;;;20.30;101613.00;;;;2080094;28;20285;-64
2021/04/24 02:47:59;;;;;;;2.43;1.80;;;;;20.30;101608.00;;;;2080367;28;20206;-64
2021/04/24 02:49:00;;;;;;;2.50;2.13;;;;;20.30;101614.00;;;;2080192;28;20202;-64
2021/04/24 02:50:01;;;;;;;1.80;1.50;;;;;20.30;101607.00;;;;2080409;28;20206;-64
2021/04/24 02:51:01;;;;;;;2.10;1.75;;;;;20.30;101616.00;;;;2080497;28;20214;-64
2021/04/24 02:52:02;;;;;;;2.23;1.80;;;;;20.30;101609.00;;;;2073230;28;20244;-64
2021/04/24 02:53:03;;;;;;;1.70;1.50;;;;;20.30;101607.00;;;;2080500;28;20233;-64
2021/04/24 02:54:03;;;;;;;2.40;1.60;;;;;20.30;101604.00;;;;2073333;28;20747;-64
2021/04/24 02:55:05;;;;;;;4.73;1.80;;;;;20.30;101618.00;;;;2080483;28;20585;-64
2021/04/24 02:56:05;;;;;;;2.33;1.23;;;;;20.30;101626.00;;;;2080368;28;20654;-64
2021/04/24 02:57:06;;;;;;;1.83;1.53;;;;;20.30;101620.00;;;;2080108;28;20280;-64
2021/04/24 02:58:06;;;;;;;1.97;1.77;;;;;20.30;101616.00;;;;2080152;28;20268;-64
2021/04/24 02:59:06;;;;;;;1.83;1.67;;;;;20.20;101626.00;;;;2077288;28;20275;-64
2021/04/24 03:00:08;;;;;;;1.70;1.60;;;;;20.30;101618.00;;;;2079366;28;20221;-64
2021/04/24 03:01:08;;;;;;;2.17;1.80;;;;;20.30;101624.00;;;;2079754;28;20220;-64
2021/04/24 03:02:08;;;;;;;2.03;1.83;;;;;20.30;101621.00;;;;2080171;28;20209;-64
2021/04/24 03:03:10;;;;;;;2.07;1.70;;;;;20.20;101619.00;;;;2080187;28;20301;-64
2021/04/24 03:04:11;;;;;;;2.78;1.50;;;;;20.20;101625.00;;;;2075750;28;20652;-64
2021/04/24 03:05:16;;;;;;;2.20;2.00;;;;;20.20;101624.00;;;;2087366;28;20201;-64
2021/04/24 03:06:16;;;;;;;2.53;1.40;;;;;20.30;101614.00;;;;2083262;28;20456;-64
2021/04/24 03:07:16;;;;;;;1.53;1.40;;;;;20.30;101621.00;;;;2086820;28;20276;-63
2021/04/24 03:08:17;;;;;;;2.80;1.70;;;;;20.20;101617.00;;;;2079272;28;20798;-64
2021/04/24 03:09:17;;;;;;;2.63;1.57;;;;;20.20;101616.00;;;;2079544;28;20700;-64
2021/04/24 03:10:18;;;;;;;2.23;2.03;;;;;20.20;101622.00;;;;2078325;28;20716;-63
2021/04/24 03:11:18;;;;;;;2.10;1.90;;;;;20.20;101622.00;;;;2078700;28;20214;-64
2021/04/24 03:12:18;;;;;;;2.00;1.80;;;;;20.20;101621.00;;;;2079522;28;20217;-64
2021/04/24 03:13:19;;;;;;;1.63;1.53;;;;;20.20;101618.00;;;;2079603;28;20268;-63
2021/04/24 03:14:19;;;;;;;2.40;1.93;;;;;20.20;101621.00;;;;2079903;28;20217;-64
2021/04/24 03:15:19;;;;;;;2.47;1.87;;;;;20.20;101620.00;;;;2078470;28;20716;-64
2021/04/24 03:16:20;;;;;;;2.53;2.10;;;;;20.20;101624.00;;;;2079565;28;20222;-64
2021/04/24 03:17:20;;;;;;;2.30;2.10;;;;;20.20;101623.00;;;;2080164;28;20229;-64
2021/04/24 03:18:20;;;;;;;2.37;1.70;;;;;20.20;101614.00;;;;2080360;28;20214;-64
2021/04/24 03:19:21;;;;;;;2.23;1.60;;;;;20.20;101623.00;;;;2080027;28;20210;-63
2021/04/24 03:20:21;;;;;;;2.23;2.03;;;;;20.20;101623.00;;;;2079681;28;20224;-64
2021/04/24 03:21:22;;;;;;;2.00;1.80;;;;;20.20;101609.00;;;;2080375;28;20216;-64
2021/04/24 03:22:22;;;;;;;3.43;2.00;;;;;20.20;101624.00;;;;2075590;28;20214;-64
2021/04/24 03:23:23;;;;;;;3.27;2.20;;;;;20.20;101619.00;;;;2078518;28;20532;-64
2021/04/24 03:24:23;;;;;;;2.90;2.07;;;;;20.20;101618.00;;;;2080180;28;20245;-64
2021/04/24 03:25:23;;;;;;;2.40;1.83;;;;;20.20;101618.00;;;;2080400;28;20225;-64
2021/04/24 03:26:24;;;;;;;1.97;1.43;;;;;20.20;101626.00;;;;2080391;28;20626;-64
2021/04/24 03:27:24;;;;;;;3.57;1.80;;;;;20.20;101621.00;;;;2080222;28;20569;-64
2021/04/24 03:28:24;;;;;;;2.73;2.17;;;;;20.20;101623.00;;;;2080105;28;20225;-64
2021/04/24 03:29:25;;;;;;;2.13;1.67;;;;;20.20;101622.00;;;;2079928;28;20301;-64
2021/04/24 03:30:26;;;;;;;1.60;1.50;;;;;20.20;101613.00;;;;2080055;28;20341;-64
2021/04/24 03:31:26;;;;;;;1.87;1.60;;;;;20.20;101620.00;;;;2076816;28;20216;-63
2021/04/24 03:32:26;;;;;;;2.60;2.10;;;;;20.20;101619.00;;;;2080023;28;20456;-63
2021/04/24 03:33:27;;;;;;;2.87;2.00;;;;;20.20;101625.00;;;;2079445;28;20301;-64
2021/04/24 03:34:27;;;;;;;2.70;1.87;;;;;20.10;101621.00;;;;2079437;28;20222;-64
2021/04/24 03:35:28;;;;;;;2.37;1.60;;;;;20.10;101613.00;;;;2077663;28;20214;-64
2021/04/24 03:36:28;;;;;;;2.47;1.87;;;;;20.10;101618.00;;;;2079972;28;20260;-64
2021/04/24 03:37:28;;;;;;;2.07;1.87;;;;;20.10;101620.00;;;;2080287;28;20210;-64
2021/04/24 03:38:29;;;;;;;3.23;1.67;;;;;20.20;101620.00;;;;2080201;28;20214;-64
2021/04/24 03:39:29;;;;;;;3.10;1.80;;;;;20.20;101625.00;;;;2079956;28;20229;-64
2021/04/24 03:40:29;;;;;;;2.67;1.87;;;;;20.20;101627.00;;;;2079900;28;20288;-64
2021/04/24 03:41:30;;;;;;;3.73;2.17;;;;;20.20;101617.00;;;;2080100;28;20217;-64
2021/04/24 03:42:30;;;;;;;1.90;1.80;;;;;20.20;101628.00;;;;2079877;28;20705;-64
2021/04/24 03:43:31;;;;;;;2.20;2.00;;;;;20.20;101623.00;;;;2080100;28;20297;-64
2021/04/24 03:44:31;;;;;;;2.50;1.93;;;;;20.10;101625.00;;;;2079902;28;20656;-64
2021/04/24 03:45:31;;;;;;;1.93;1.73;;;;;20.10;101627.00;;;;2079599;28;20225;-64
2021/04/24 03:46:32;;;;;;;2.13;1.93;;;;;20.10;101622.00;;;;2080001;28;20210;-63
2021/04/24 03:47:32;;;;;;;3.33;1.70;;;;;20.10;101626.00;;;;2075365;28;20237;-64
2021/04/24 03:48:33;;;;;;;2.57;2.20;;;;;20.10;101624.00;;;;2079121;28;20218;-64
2021/04/24 03:49:33;;;;;;;2.80;1.83;;;;;20.10;101615.00;;;;2080059;28;20226;-64
2021/04/24 03:50:33;;;;;;;2.53;1.90;;;;;20.10;101634.00;;;;2079267;28;20241;-64
2021/04/24 03:51:34;;;;;;;2.30;2.10;;;;;20.10;101626.00;;;;2079195;28;20225;-64
2021/04/24 03:52:34;;;;;;;2.10;2.00;;;;;20.10;101628.00;;;;2079251;28;20221;-64
2021/04/24 03:53:34;;;;;;;3.50;2.17;;;;;20.10;101627.00;;;;2079379;28;20213;-64
2021/04/24 03:54:35;;;;;;;2.23;2.03;;;;;20.10;101633.00;;;;2079918;28;20213;-64
2021/04/24 03:55:35;;;;;;;3.00;2.37;;;;;20.10;101631.00;;;;2079642;28;20214;-64
2021/04/24 03:56:35;;;;;;;2.83;2.23;;;;;20.10;101632.00;;;;2078757;28;20566;-64
2021/04/24 03:57:36;;;;;;;2.10;1.90;;;;;20.10;101638.00;;;;2078875;28;20299;-64
2021/04/24 03:58:36;;;;;;;2.70;2.07;;;;;20.10;101623.00;;;;2075905;28;20300;-63
2021/04/24 03:59:36;;;;;;;2.83;2.10;;;;;20.10;101630.00;;;;2079930;28;20218;-64
2021/04/24 04:00:37;;;;;;;2.10;1.90;;;;;20.10;101637.00;;;;2079734;28;20249;-64
2021/04/24 04:01:37;;;;;;;2.70;2.10;;;;;20.10;101619.00;;;;2079908;28;20349;-64
2021/04/24 04:02:50;;;;;;;2.73;2.10;;;;;20.10;101625.00;;;;2078688;28;20637;-64
2021/04/24 04:03:50;;;;;;;2.20;2.00;;;;;20.10;101634.00;;;;2078332;28;20210;-64
2021/04/24 04:04:51;;;;;;;2.67;1.87;;;;;20.10;101629.00;;;;2079905;28;20237;-64
2021/04/24 04:05:51;;;;;;;2.72;2.08;;;;;20.10;101634.00;;;;2075882;28;20229;-64
2021/04/24 04:06:52;;;;;;;2.27;2.07;;;;;20.10;101642.00;;;;2079242;28;20229;-64
2021/04/24 04:07:52;;;;;;;2.50;1.93;;;;;20.10;101631.00;;;;2079963;28;20265;-64
2021/04/24 04:08:52;;;;;;;2.50;2.00;;;;;20.10;101632.00;;;;2079175;28;20688;-64
2021/04/24 04:09:53;;;;;;;2.80;2.07;;;;;20.10;101629.00;;;;2079569;28;20688;-64
2021/04/24 04:10:53;;;;;;;2.60;2.03;;;;;20.10;101629.00;;;;2079674;28;20577;-64
2021/04/24 04:11:53;;;;;;;2.33;2.13;;;;;20.10;101638.00;;;;2079932;28;20581;-64
2021/04/24 04:12:54;;;;;;;2.10;1.93;;;;;20.10;101640.00;;;;2079649;28;20228;-64
2021/04/24 04:13:56;;;;;;;2.43;1.83;;;;;20.10;101630.00;;;;2079340;28;20593;-64
2021/04/24 04:14:57;;;;;;;2.65;1.90;;;;;20.10;101642.00;;;;2079836;28;20210;-63
2021/04/24 04:15:57;;;;;;;4.43;2.10;;;;;20.10;101641.00;;;;2079770;28;20308;-64
2021/04/24 04:16:57;;;;;;;1.90;1.80;;;;;20.10;101643.00;;;;2075397;28;20245;-63
2021/04/24 04:18:07;;;;;;;3.20;2.23;;;;;20.10;101639.00;;;;2079104;28;20221;-64
2021/04/24 04:19:07;;;;;;;2.25;2.05;;;;;20.00;101636.00;;;;2078940;28;20296;-64
2021/04/24 04:20:10;;;;;;;2.43;2.23;;;;;20.10;101641.00;;;;2079128;28;20635;-63
2021/04/24 04:21:10;;;;;;;4.03;2.40;;;;;20.10;101638.00;;;;2079293;28;20224;-64
2021/04/24 04:22:11;;;;;;;2.07;1.87;;;;;20.10;101641.00;;;;2070688;28;20233;-64
2021/04/24 04:23:11;;;;;;;3.33;2.40;;;;;20.10;101642.00;;;;2070810;28;20630;-63
2021/04/24 04:24:11;;;;;;;2.07;1.87;;;;;20.10;101641.00;;;;2078796;28;20225;-63
2021/04/24 04:25:13;;;;;;;2.27;2.07;;;;;20.00;101643.00;;;;2079435;28;20222;-63
2021/04/24 04:26:13;;;;;;;2.65;2.42;;;;;20.00;101638.00;;;;2079308;28;20245;-64
2021/04/24 04:27:14;;;;;;;2.10;1.83;;;;;20.00;101649.00;;;;2079307;28;20572;-64
2021/04/24 04:28:14;;;;;;;3.20;1.70;;;;;20.00;101656.00;;;;2079589;28;20240;-64
2021/04/24 04:29:14;;;;;;;2.60;2.17;;;;;20.00;101649.00;;;;2079586;28;20221;-64
2021/04/24 04:30:15;;;;;;;2.70;2.27;;;;;20.00;101645.00;;;;2079651;28;20241;-64
2021/04/24 04:31:16;;;;;;;3.77;2.40;;;;;20.00;101641.00;;;;2075624;28;20218;-64
2021/04/24 04:32:16;;;;;;;2.33;2.07;;;;;20.00;101647.00;;;;2079488;28;20456;-64
2021/04/24 04:33:16;;;;;;;2.33;2.13;;;;;20.00;101644.00;;;;2079799;28;20617;-64
2021/04/24 04:34:17;;;;;;;2.50;2.20;;;;;20.00;101642.00;;;;2076739;28;20778;-64
2021/04/24 04:35:18;;;;;;;1.87;1.67;;;;;20.00;101647.00;;;;2079449;28;20251;-64
2021/04/24 04:36:18;;;;;;;2.95;2.40;;;;;20.00;101644.00;;;;2079458;28;20260;-64
2021/04/24 04:37:18;;;;;;;2.40;2.20;;;;;20.00;101641.00;;;;2079382;28;20267;-64
2021/04/24 04:38:19;;;;;;;2.33;2.00;;;;;20.00;101639.00;;;;2079392;28;20214;-64
2021/04/24 04:39:19;;;;;;;2.30;2.10;;;;;20.00;101640.00;;;;2078971;28;20213;-64
2021/04/24 04:40:20;;;;;;;3.10;2.80;;;;;20.00;101637.00;;;;2074395;28;20218;-64
2021/04/24 04:41:20;;;;;;;3.40;2.30;;;;;20.00;101644.00;;;;2078998;28;20620;-64
2021/04/24 04:42:20;;;;;;;2.43;2.17;;;;;20.00;101640.00;;;;2086524;28;20213;-63
2021/04/24 04:43:21;;;;;;;3.10;2.30;;;;;20.00;101646.00;;;;2079568;28;20218;-64
2021/04/24 04:44:21;;;;;;;2.93;2.47;;;;;20.00;101637.00;;;;2078331;28;20313;-64
2021/04/24 04:45:21;;;;;;;3.03;2.30;;;;;20.00;101637.00;;;;2079621;28;20218;-64
2021/04/24 04:46:22;;;;;;;3.07;2.13;;;;;20.00;101649.00;;;;2079478;28;20210;-64
2021/04/24 04:47:22;;;;;;;3.63;2.80;;;;;20.00;101643.00;;;;2079489;28;20727;-64
2021/04/24 04:48:22;;;;;;;2.63;2.43;;;;;20.00;101642.00;;;;2079367;28;20220;-64
2021/04/24 04:49:23;;;;;;;2.33;2.13;;;;;20.00;101644.00;;;;2078082;28;20218;-64
2021/04/24 04:50:26;;;;;;;2.27;1.90;;;;;20.00;101640.00;;;;2079299;28;20210;-64
2021/04/24 04:51:27;;;;;;;2.88;2.45;;;;;20.00;101643.00;;;;2079483;28;20214;-64
2021/04/24 04:52:27;;;;;;;3.60;2.40;;;;;20.00;101646.00;;;;2079486;28;20313;-64
2021/04/24 04:53:27;;;;;;;2.80;2.33;;;;;20.00;101639.00;;;;2079362;28;20210;-64
2021/04/24 04:54:28;;;;;;;2.47;2.27;;;;;20.00;101638.00;;;;2079384;28;20205;-63
2021/04/24 04:55:28;;;;;;;4.03;2.50;;;;;20.00;101643.00;;;;2079559;28;20681;-64
2021/04/24 04:56:29;;;;;;;3.23;2.50;;;;;20.00;101630.00;;;;2079571;28;20697;-64
2021/04/24 04:57:29;;;;;;;2.70;2.20;;;;;20.00;101645.00;;;;2079500;28;20251;-64
2021/04/24 04:58:29;;;;;;;2.60;2.40;;;;;20.00;101631.00;;;;2079618;28;20589;-64
2021/04/24 04:59:30;;;;;;;3.60;2.70;;;;;20.00;101629.00;;;;2078911;28;20589;-64
2021/04/24 05:00:30;;;;;;;2.70;2.50;;;;;20.00;101628.00;;;;2078922;28;20261;-64